Terminal Aerodrome Forecast
Issued by NWS Grand Forks, ND

Home | Current Version | Previous Version | Graphics & Text | Print | Product List | Glossary On
Versions: 1 2 3 4 5 6 7 8 9 10 11 12 13
187
FTUS43 KFGF 241600 AAA
TAFGFK
TAF AMD
KGFK 241600Z 2416/2512 35015G22KT P6SM FEW250
     FM242200 22010KT P6SM FEW250=

USA.gov is the U.S. government's official web portal to all federal, state and local government web resources and services.